Time;durP1;ratioP1;P1;durP2;ratioP2;P2;SDS_P1;SDS_P2;PMS_P1;PMS_P2;Temp;Humidity;BMP_temperature;BMP_pressure;BME280_temperature;BME280_humidity;BME280_pressure;Samples;Min_cycle;Max_cycle;Signal;HPM_P1;HPM_P2
2022/01/05 00:00:47;;;;;;;8.30;1.83;;;;;;;1.05;100.00;98972.44;5016242;28;20504;-77
2022/01/05 00:03:12;;;;;;;8.43;3.87;;;;;;;1.08;100.00;98964.28;5007717;28;20260;-80
2022/01/05 00:05:38;;;;;;;8.35;1.83;;;;;;;1.04;100.00;98947.13;5007697;28;20036;-79
2022/01/05 00:08:04;;;;;;;7.63;2.28;;;;;;;1.08;100.00;98948.50;5008014;28;20713;-76
2022/01/05 00:10:29;;;;;;;9.27;2.40;;;;;;;0.97;100.00;98932.91;5007765;28;20037;-77
2022/01/05 00:12:55;;;;;;;6.55;1.90;;;;;;;0.98;100.00;98942.44;5016005;28;20026;-79
2022/01/05 00:15:20;;;;;;;41.13;3.73;;;;;;;0.96;100.00;98941.75;5008938;28;20080;-77
2022/01/05 00:17:46;;;;;;;15.35;3.00;;;;;;;0.91;100.00;98936.94;5008013;28;20100;-77
2022/01/05 00:20:12;;;;;;;12.40;3.78;;;;;;;0.92;100.00;98935.97;5008082;28;20072;-79
2022/01/05 00:22:37;;;;;;;;;;;;;;;0.92;100.00;98924.66;5007844;28;20104;-78
2022/01/05 00:25:03;;;;;;;10.98;2.15;;;;;;;0.96;100.00;98931.25;4998783;28;20565;-78
2022/01/05 00:27:29;;;;;;;12.20;2.45;;;;;;;0.94;100.00;98925.34;5009532;28;20038;-79
2022/01/05 00:29:54;;;;;;;7.37;2.50;;;;;;;0.85;100.00;98916.50;5024289;28;20096;-79
2022/01/05 00:32:20;;;;;;;14.10;3.05;;;;;;;0.78;100.00;98905.75;5009407;28;20280;-78
2022/01/05 00:34:45;;;;;;;11.40;2.97;;;;;;;0.73;100.00;98910.63;5023826;28;20040;-79
2022/01/05 00:37:11;;;;;;;14.30;3.97;;;;;;;0.74;100.00;98906.19;5000280;28;20021;-77
2022/01/05 00:39:37;;;;;;;17.80;2.80;;;;;;;0.70;100.00;98907.44;4999514;28;20046;-80
2022/01/05 00:42:02;;;;;;;15.47;3.97;;;;;;;0.69;100.00;98897.91;5008292;28;20018;-80
2022/01/05 00:44:28;;;;;;;9.55;2.78;;;;;;;0.65;100.00;98905.25;5015645;28;20030;-79
2022/01/05 00:46:54;;;;;;;12.80;3.35;;;;;;;0.69;100.00;98904.00;5008011;28;20036;-76
2022/01/05 00:49:19;;;;;;;7.28;4.28;;;;;;;0.66;100.00;98909.53;5024256;28;20040;-78
2022/01/05 00:51:44;;;;;;;20.10;3.30;;;;;;;0.63;100.00;98899.31;5024717;28;20032;-77
2022/01/05 00:54:10;;;;;;;8.17;3.10;;;;;;;0.59;100.00;98911.91;4999295;28;20436;-78
2022/01/05 00:56:35;;;;;;;8.00;2.90;;;;;;;0.65;100.00;98915.75;5007721;28;20277;-78
2022/01/05 00:59:00;;;;;;;7.23;3.03;;;;;;;0.68;100.00;98919.88;5024299;28;20034;-78
2022/01/05 01:01:26;;;;;;;18.50;4.00;;;;;;;0.66;100.00;98916.59;4999365;28;20687;-77
2022/01/05 01:03:51;;;;;;;6.15;2.38;;;;;;;0.64;100.00;98921.97;4999105;28;20044;-79
2022/01/05 01:06:17;;;;;;;7.82;2.28;;;;;;;0.63;100.00;98920.31;4995103;28;20040;-80
2022/01/05 01:08:42;;;;;;;13.33;3.53;;;;;;;0.53;100.00;98907.22;5007888;28;20144;-80
2022/01/05 01:11:08;;;;;;;11.03;2.37;;;;;;;0.57;100.00;98918.28;5009267;28;20790;-80
2022/01/05 01:13:33;;;;;;;13.65;3.45;;;;;;;0.63;100.00;98907.19;5023514;28;20292;-76
2022/01/05 01:15:59;;;;;;;9.00;3.00;;;;;;;0.61;100.00;98919.66;5042114;22;20052;-78
2022/01/05 01:18:24;;;;;;;7.60;2.45;;;;;;;0.64;100.00;98911.47;5029745;28;20041;-78
2022/01/05 01:20:50;;;;;;;9.98;2.88;;;;;;;0.61;100.00;98906.53;5012103;28;20029;-79
2022/01/05 01:23:22;;;;;;;6.70;2.05;;;;;;;0.58;100.00;98904.97;5003133;28;20029;-78
2022/01/05 01:25:52;;;;;;;7.68;2.90;;;;;;;0.56;100.00;98904.31;5006261;28;20491;-78
2022/01/05 01:28:18;;;;;;;6.00;2.95;;;;;;;0.53;100.00;98903.78;5000942;28;20503;-78
2022/01/05 01:30:44;;;;;;;13.10;3.25;;;;;;;0.55;100.00;98899.22;5001646;28;20026;-78
2022/01/05 01:33:09;;;;;;;8.82;2.97;;;;;;;0.57;100.00;98902.53;5003840;28;20045;-78
2022/01/05 01:35:34;;;;;;;12.13;2.83;;;;;;;0.44;100.00;98891.50;4995190;28;20105;-79
2022/01/05 01:38:00;;;;;;;6.00;1.98;;;;;;;0.43;100.00;98885.44;4999907;28;20034;-78
2022/01/05 01:40:25;;;;;;;7.63;2.05;;;;;;;0.34;100.00;98878.41;4998663;28;20092;-79
2022/01/05 01:42:51;;;;;;;7.78;2.78;;;;;;;0.34;100.00;98889.72;4990827;28;20037;-78
2022/01/05 01:45:17;;;;;;;11.75;3.08;;;;;;;0.41;100.00;98898.69;5001122;28;20030;-79
2022/01/05 01:47:42;;;;;;;9.00;2.13;;;;;;;0.41;100.00;98903.13;5000431;28;20044;-78
2022/01/05 01:50:09;;;;;;;6.68;1.98;;;;;;;0.45;100.00;98894.00;4997948;28;20101;-78
2022/01/05 01:52:35;;;;;;;6.38;1.58;;;;;;;0.33;100.00;98874.97;4998047;28;20450;-79
2022/01/05 01:55:01;;;;;;;12.10;3.00;;;;;;;0.40;100.00;98886.53;5001330;28;20018;-77
2022/01/05 01:57:28;;;;;;;15.93;4.72;;;;;;;0.29;100.00;98849.97;4995464;28;20285;-79
2022/01/05 01:59:57;;;;;;;6.82;2.00;;;;;;;0.48;100.00;98872.69;4981179;28;20070;-78
2022/01/05 02:02:23;;;;;;;9.18;1.75;;;;;;;0.46;100.00;98863.31;5005027;28;20813;-80
2022/01/05 02:04:49;;;;;;;8.20;1.88;;;;;;;0.49;100.00;98870.88;4993554;28;20109;-79
2022/01/05 02:07:14;;;;;;;13.68;2.60;;;;;;;0.38;100.00;98850.91;5001080;28;20069;-79
2022/01/05 02:09:40;;;;;;;11.50;2.10;;;;;;;0.39;100.00;98844.66;5001053;28;20388;-79
2022/01/05 02:12:50;;;;;;;11.55;1.85;;;;;;;0.45;100.00;98857.22;5001551;28;20376;-79
2022/01/05 02:15:16;;;;;;;11.40;2.20;;;;;;;0.43;100.00;98845.22;4981324;28;20631;-79
2022/01/05 02:20:24;;;;;;;8.57;1.70;;;;;;;0.39;100.00;98819.25;4986216;28;20038;-80
2022/01/05 02:22:50;;;;;;;12.85;2.30;;;;;;;0.32;100.00;98820.78;4996951;28;20026;-79
2022/01/05 02:25:16;;;;;;;;;;;;;;;0.53;100.00;98838.94;5003061;28;20073;-79
2022/01/05 02:27:44;;;;;;;11.68;2.00;;;;;;;0.52;100.00;98841.75;5018823;28;19917;-79
2022/01/05 02:30:11;;;;;;;10.07;2.10;;;;;;;0.52;100.00;98839.13;4997655;28;20514;-78
2022/01/05 02:32:37;;;;;;;11.10;2.72;;;;;;;0.54;100.00;98839.75;5002759;28;20083;-79
2022/01/05 02:35:04;;;;;;;15.63;4.00;;;;;;;0.54;100.00;98826.63;4983006;28;20137;-79
2022/01/05 02:37:30;;;;;;;8.95;2.47;;;;;;;0.50;100.00;98817.41;4999906;28;20533;-79
2022/01/05 02:39:55;;;;;;;13.15;2.47;;;;;;;0.49;100.00;98813.97;4999789;28;20041;-78
2022/01/05 02:42:28;;;;;;;12.07;1.52;;;;;;;0.49;100.00;98811.34;4986118;28;20407;-79
2022/01/05 02:44:58;;;;;;;7.25;2.00;;;;;;;0.50;100.00;98812.16;4994140;28;20039;-79
2022/01/05 02:47:23;;;;;;;9.00;1.52;;;;;;;0.47;100.00;98809.81;5010083;28;20041;-78
2022/01/05 02:49:49;;;;;;;10.82;2.20;;;;;;;0.43;100.00;98795.34;5014722;28;20068;-79
2022/01/05 02:52:15;;;;;;;10.77;2.97;;;;;;;0.55;100.00;98799.41;5014040;28;20038;-79
2022/01/05 02:54:42;;;;;;;5.65;1.77;;;;;;;0.42;100.00;98786.63;5010021;28;20084;-79
2022/01/05 02:57:07;;;;;;;12.25;2.08;;;;;;;0.43;100.00;98785.66;5005025;28;20540;-79
2022/01/05 02:59:33;;;;;;;9.88;2.22;;;;;;;0.40;100.00;98771.03;5005142;28;20112;-79
2022/01/05 03:01:58;;;;;;;13.27;1.73;;;;;;;0.40;100.00;98772.84;5006649;28;20130;-78
2022/01/05 03:04:26;;;;;;;5.93;1.57;;;;;;;0.49;100.00;98790.34;5006520;28;20049;-78
2022/01/05 03:06:51;;;;;;;8.68;1.67;;;;;;;0.36;100.00;98764.41;4996856;28;20293;-78
2022/01/05 03:09:17;;;;;;;11.68;1.80;;;;;;;0.43;100.00;98769.91;4986421;28;20029;-79
2022/01/05 03:11:42;;;;;;;15.00;3.13;;;;;;;0.52;100.00;98771.66;5005687;28;20200;-78
2022/01/05 03:14:07;;;;;;;7.10;1.93;;;;;;;0.43;100.00;98743.66;5002578;28;20277;-79
2022/01/05 03:16:33;;;;;;;10.27;2.38;;;;;;;0.48;100.00;98756.34;4997163;28;20042;-79
2022/01/05 03:18:58;;;;;;;19.55;1.75;;;;;;;0.51;100.00;98748.16;4987763;28;20088;-79
2022/01/05 03:21:23;;;;;;;11.30;1.67;;;;;;;0.50;100.00;98744.72;5002163;28;20042;-78
2022/01/05 03:23:49;;;;;;;22.87;2.97;;;;;;;0.50;100.00;98744.72;5004689;28;20293;-79
2022/01/05 03:26:14;;;;;;;11.85;1.77;;;;;;;0.44;100.00;98739.22;5001561;28;20042;-79
2022/01/05 03:28:39;;;;;;;14.33;1.90;;;;;;;0.54;100.00;98734.72;5002433;28;20030;-79
2022/01/05 03:31:05;;;;;;;19.60;2.75;;;;;;;0.56;100.00;98735.41;5005096;28;20426;-79
2022/01/05 03:33:30;;;;;;;19.27;1.80;;;;;;;0.61;100.00;98717.44;5005593;28;20778;-79
2022/01/05 03:35:56;;;;;;;7.45;1.48;;;;;;;0.67;100.00;98731.75;5001977;28;20282;-79
2022/01/05 03:38:23;;;;;;;15.60;2.67;;;;;;;0.72;100.00;98740.84;5008404;28;20026;-79
2022/01/05 03:40:49;;;;;;;18.02;2.35;;;;;;;0.71;100.00;98725.25;5004853;28;20034;-79
2022/01/05 03:43:16;;;;;;;13.55;3.08;;;;;;;0.72;100.00;98721.63;5000657;28;20538;-78
2022/01/05 03:45:42;;;;;;;10.40;2.10;;;;;;;0.61;100.00;98718.25;4986379;28;20539;-79
2022/01/05 03:48:10;;;;;;;12.27;2.25;;;;;;;0.67;100.00;98719.44;5020981;28;20048;-79
2022/01/05 03:50:36;;;;;;;10.68;3.35;;;;;;;0.68;100.00;98697.47;4997359;28;20042;-79
2022/01/05 03:53:03;;;;;;;13.45;3.40;;;;;;;0.67;100.00;98698.44;5000940;28;20044;-79
2022/01/05 03:55:28;;;;;;;13.20;2.42;;;;;;;0.68;100.00;98702.72;4999545;28;20042;-78
2022/01/05 03:57:54;;;;;;;12.95;2.15;;;;;;;0.70;100.00;98698.13;5001936;28;20026;-78
2022/01/05 04:00:19;;;;;;;10.23;2.00;;;;;;;0.73;100.00;98703.09;5003495;28;20041;-78
2022/01/05 04:02:45;;;;;;;10.70;1.88;;;;;;;0.60;100.00;98697.38;4994722;28;20288;-77
2022/01/05 04:05:10;;;;;;;16.07;2.37;;;;;;;0.76;100.00;98700.16;5000076;28;20041;-79
2022/01/05 04:07:36;;;;;;;11.20;2.50;;;;;;;0.80;100.00;98705.97;4989124;28;20289;-79
2022/01/05 04:10:02;;;;;;;11.18;1.95;;;;;;;0.86;100.00;98696.66;4995628;28;20030;-78
2022/01/05 04:12:28;;;;;;;16.30;3.08;;;;;;;0.71;100.00;98675.34;4984724;28;20279;-79
2022/01/05 04:14:53;;;;;;;9.40;2.60;;;;;;;0.86;100.00;98691.38;5001333;28;20491;-78
2022/01/05 04:17:19;;;;;;;16.70;3.88;;;;;;;0.79;100.00;98681.47;4984899;28;20113;-79
2022/01/05 04:19:44;;;;;;;10.10;1.60;;;;;;;0.91;100.00;98689.13;5001311;28;20040;-79
2022/01/05 04:22:09;;;;;;;9.03;2.40;;;;;;;0.89;100.00;98681.41;5003173;28;20280;-79
2022/01/05 04:24:35;;;;;;;8.02;2.08;;;;;;;0.92;100.00;98664.53;4995503;28;20052;-79
2022/01/05 04:27:00;;;;;;;9.40;2.47;;;;;;;0.95;100.00;98654.53;4992926;28;20036;-78
2022/01/05 04:29:26;;;;;;;9.60;1.63;;;;;;;0.96;100.00;98650.09;5000050;28;20715;-78
2022/01/05 04:31:51;;;;;;;13.88;2.35;;;;;;;0.94;100.00;98628.41;5001631;28;20105;-79
2022/01/05 04:34:18;;;;;;;15.27;3.60;;;;;;;0.93;100.00;98634.63;4998894;28;20026;-79
2022/01/05 04:36:44;;;;;;;8.75;1.70;;;;;;;0.92;100.00;98638.25;5000789;28;20703;-77
2022/01/05 04:39:09;;;;;;;14.10;4.03;;;;;;;1.08;100.00;98648.88;5002830;28;20041;-78
2022/01/05 04:41:34;;;;;;;16.67;1.90;;;;;;;1.01;100.00;98622.38;4996714;28;20088;-79
2022/01/05 04:44:00;;;;;;;12.53;3.07;;;;;;;1.07;100.00;98630.63;4995249;28;20376;-79
2022/01/05 04:46:25;;;;;;;13.27;1.80;;;;;;;1.10;100.00;98623.28;4999318;28;20061;-78
2022/01/05 04:48:50;;;;;;;8.30;1.40;;;;;;;1.07;100.00;98610.44;5000864;28;20088;-78
2022/01/05 04:51:16;;;;;;;11.10;1.90;;;;;;;1.19;100.00;98629.41;5000073;28;20030;-78
2022/01/05 04:53:41;;;;;;;10.70;2.17;;;;;;;1.17;100.00;98620.84;5000540;28;20034;-78
2022/01/05 04:56:06;;;;;;;12.50;2.30;;;;;;;1.23;100.00;98610.53;5003248;28;20265;-79
2022/01/05 04:58:32;;;;;;;12.63;2.03;;;;;;;1.15;100.00;98621.00;5002779;28;20221;-79
2022/01/05 05:00:57;;;;;;;11.23;2.20;;;;;;;1.13;100.00;98617.69;5001246;28;20269;-78
2022/01/05 05:03:23;;;;;;;9.55;1.70;;;;;;;1.04;100.00;98594.97;4985565;28;20034;-78
2022/01/05 05:05:48;;;;;;;13.20;2.38;;;;;;;1.08;100.00;98619.97;4999590;28;20034;-78
2022/01/05 05:08:14;;;;;;;9.77;1.92;;;;;;;1.14;100.00;98643.00;4997740;28;20038;-79
2022/01/05 05:10:39;;;;;;;13.63;1.73;;;;;;;1.10;100.00;98644.31;4998731;28;20026;-79
2022/01/05 05:13:12;;;;;;;11.98;2.15;;;;;;;1.09;100.00;98668.91;5001610;28;20025;-79
2022/01/05 05:15:38;;;;;;;10.05;2.00;;;;;;;1.12;100.00;98673.84;4999096;28;20113;-78
2022/01/05 05:18:04;;;;;;;12.90;2.33;;;;;;;1.05;100.00;98671.03;4997460;28;20038;-78
2022/01/05 05:20:29;;;;;;;10.68;2.92;;;;;;;1.05;100.00;98680.69;4985788;28;20551;-78
2022/01/05 05:22:55;;;;;;;9.05;1.83;;;;;;;0.96;100.00;98692.13;5000970;28;20034;-78
2022/01/05 05:25:20;;;;;;;10.93;2.08;;;;;;;1.06;100.00;98692.88;4996402;28;20041;-78
2022/01/05 05:27:46;;;;;;;14.77;1.80;;;;;;;0.91;100.00;98694.38;4991284;28;20542;-78
2022/01/05 05:30:11;;;;;;;15.80;4.63;;;;;;;0.98;100.00;98716.44;4997337;28;20034;-79
2022/01/05 05:32:37;;;;;;;10.15;3.78;;;;;;;1.09;100.00;98739.06;4993901;28;20275;-78
2022/01/05 05:35:03;;;;;;;10.48;2.03;;;;;;;1.11;100.00;98753.69;4999334;28;20465;-78
2022/01/05 05:37:28;;;;;;;7.93;1.98;;;;;;;1.10;100.00;98748.59;5003815;28;20040;-78
2022/01/05 05:39:54;;;;;;;8.73;2.13;;;;;;;1.10;100.00;98745.94;4999117;28;20037;-78
2022/01/05 05:42:19;;;;;;;7.57;2.40;;;;;;;1.07;100.00;98747.09;4991747;28;20023;-79
2022/01/05 05:44:45;;;;;;;9.68;2.20;;;;;;;1.06;100.00;98761.22;4999228;28;20096;-78
2022/01/05 05:47:10;;;;;;;7.60;1.97;;;;;;;1.06;100.00;98763.84;5001269;28;20017;-78
2022/01/05 05:49:35;;;;;;;9.10;2.30;;;;;;;0.97;100.00;98746.34;5001792;28;20462;-79
2022/01/05 05:52:01;;;;;;;5.37;2.27;;;;;;;1.09;100.00;98778.47;4998519;28;20113;-78
2022/01/05 05:54:26;;;;;;;10.67;2.03;;;;;;;1.14;100.00;98787.56;4985314;28;20316;-78
2022/01/05 05:56:51;;;;;;;6.43;1.70;;;;;;;1.07;100.00;98783.88;5000325;28;20054;-78
2022/01/05 05:59:17;;;;;;;2.83;1.70;;;;;;;1.10;100.00;98795.88;5001278;28;20299;-78
2022/01/05 06:01:42;;;;;;;7.00;2.17;;;;;;;1.09;100.00;98787.19;5011051;28;20133;-78
2022/01/05 06:04:08;;;;;;;8.40;2.83;;;;;;;1.05;100.00;98791.09;4991924;28;20297;-79
2022/01/05 06:06:33;;;;;;;6.95;1.98;;;;;;;1.11;100.00;98801.00;4998250;28;20285;-77
2022/01/05 06:08:59;;;;;;;10.63;2.85;;;;;;;1.09;100.00;98807.38;5001040;28;20067;-78
2022/01/05 06:11:24;;;;;;;13.23;2.07;;;;;;;1.06;100.00;98787.50;5001240;28;20030;-79
2022/01/05 06:13:52;;;;;;;6.57;1.70;;;;;;;1.13;100.00;98812.19;5000263;28;20033;-79
2022/01/05 06:16:18;;;;;;;5.18;1.60;;;;;;;1.16;100.00;98817.16;5001349;28;20789;-79
2022/01/05 06:18:44;;;;;;;3.95;2.30;;;;;;;1.10;100.00;98799.38;4978966;28;20038;-79
2022/01/05 06:21:09;;;;;;;5.30;2.45;;;;;;;1.10;100.00;98815.13;5001025;28;20088;-78
2022/01/05 06:23:34;;;;;;;8.37;2.10;;;;;;;1.05;100.00;98801.59;4993141;28;20555;-78
2022/01/05 06:26:00;;;;;;;4.53;1.73;;;;;;;1.07;100.00;98817.22;5001684;28;20367;-78
2022/01/05 06:28:25;;;;;;;5.93;1.80;;;;;;;1.05;100.00;98802.44;5000871;28;20451;-79
2022/01/05 06:30:50;;;;;;;4.90;1.73;;;;;;;1.07;100.00;98815.41;4998774;28;20276;-79
2022/01/05 06:33:16;;;;;;;4.93;1.40;;;;;;;1.03;100.00;98814.91;5002258;28;20516;-79
2022/01/05 06:35:41;;;;;;;5.03;1.80;;;;;;;1.08;100.00;98824.13;5015967;28;20036;-79
2022/01/05 06:38:07;;;;;;;4.43;2.03;;;;;;;1.02;100.00;98825.56;4994603;28;20382;-79
2022/01/05 06:40:33;;;;;;;8.95;1.98;;;;;;;1.07;100.00;98822.47;5000723;28;20084;-79
2022/01/05 06:43:00;;;;;;;6.63;3.15;;;;;;;0.95;100.00;98816.63;4996894;28;20038;-77
2022/01/05 06:45:26;;;;;;;3.67;2.00;;;;;;;1.04;100.00;98831.50;4996693;28;20030;-79
2022/01/05 06:47:51;;;;;;;7.18;1.80;;;;;;;0.95;100.00;98832.38;4999413;28;20154;-79
2022/01/05 06:50:16;;;;;;;4.90;1.70;;;;;;;0.92;100.00;98832.69;4996489;28;20080;-79
2022/01/05 06:52:42;;;;;;;2.58;1.70;;;;;;;0.89;100.00;98832.97;4986852;28;20124;-79
2022/01/05 06:55:09;;;;;;;5.60;1.60;;;;;;;0.88;100.00;98839.19;5000113;28;20026;-78
2022/01/05 06:57:37;;;;;;;7.85;2.35;;;;;;;0.83;100.00;98840.47;5016367;28;20503;-77
2022/01/05 07:00:04;;;;;;;11.20;2.05;;;;;;;0.90;100.00;98850.41;4996838;28;20079;-78
2022/01/05 07:02:29;;;;;;;5.35;2.67;;;;;;;0.80;100.00;98845.19;4997491;28;20038;-79
2022/01/05 07:04:55;;;;;;;9.20;3.13;;;;;;;0.90;100.00;98850.41;4992987;28;20041;-78
2022/01/05 07:07:20;;;;;;;10.35;2.78;;;;;;;0.87;100.00;98855.91;4995582;28;20476;-79
2022/01/05 07:09:46;;;;;;;8.50;3.90;;;;;;;0.92;100.00;98866.84;5001784;28;20089;-79
2022/01/05 07:12:11;;;;;;;9.00;3.77;;;;;;;1.01;100.00;98868.59;4978069;28;20309;-79
2022/01/05 07:14:36;;;;;;;6.77;2.50;;;;;;;1.11;100.00;98889.56;5000747;28;20077;-79
2022/01/05 07:17:02;;;;;;;10.57;3.45;;;;;;;1.19;100.00;98897.50;5030429;23;20965;-78
2022/01/05 07:19:27;;;;;;;8.80;3.70;;;;;;;1.17;100.00;98881.91;4990844;28;20076;-78
2022/01/05 07:21:53;;;;;;;8.23;3.53;;;;;;;1.25;100.00;98881.97;5007434;28;20447;-78
2022/01/05 07:24:19;;;;;;;12.87;3.40;;;;;;;1.29;100.00;98898.31;4993795;28;20030;-81
2022/01/05 07:26:46;;;;;;;8.13;3.30;;;;;;;1.27;100.00;98906.31;4992692;28;20041;-81
2022/01/05 07:29:12;;;;;;;14.73;4.88;;;;;;;1.22;100.00;98891.97;5002193;28;20026;-81
2022/01/05 07:31:38;;;;;;;16.45;4.63;;;;;;;1.25;100.00;98897.75;5011755;28;20806;-80
2022/01/05 07:34:03;;;;;;;10.02;3.10;;;;;;;1.38;100.00;98909.72;5013861;28;20096;-81
2022/01/05 07:36:29;;;;;;;5.23;2.60;;;;;;;1.39;100.00;98900.84;5013154;28;20546;-81
2022/01/05 07:38:54;;;;;;;15.07;3.63;;;;;;;1.45;100.00;98910.75;5012658;28;20300;-80
2022/01/05 07:41:20;;;;;;;17.60;3.83;;;;;;;1.47;100.00;98906.19;5012080;28;20121;-81
2022/01/05 07:43:45;;;;;;;8.25;3.05;;;;;;;1.50;100.00;98910.31;5011874;28;20357;-81
2022/01/05 07:46:11;;;;;;;9.60;3.90;;;;;;;1.53;100.00;98910.88;5012623;28;20025;-80
2022/01/05 07:48:36;;;;;;;13.67;3.13;;;;;;;1.50;100.00;98905.91;5012296;28;20026;-79
2022/01/05 07:51:02;;;;;;;16.48;3.58;;;;;;;1.46;100.00;98897.47;5011778;28;20048;-80
2022/01/05 07:53:27;;;;;;;13.52;2.50;;;;;;;1.40;100.00;98895.44;5011453;28;20050;-78
2022/01/05 07:55:53;;;;;;;8.88;3.35;;;;;;;1.42;100.00;98901.38;5011012;28;20113;-80
2022/01/05 07:58:20;;;;;;;7.67;2.27;;;;;;;1.49;100.00;98909.50;5011386;28;20463;-79
2022/01/05 08:00:45;;;;;;;7.10;2.70;;;;;;;1.44;100.00;98899.44;5008226;28;20038;-79
2022/01/05 08:03:10;;;;;;;5.90;2.13;;;;;;;1.35;100.00;98899.50;4999381;28;20087;-79
2022/01/05 08:05:36;;;;;;;5.88;2.08;;;;;;;1.33;100.00;98904.06;5010760;28;20499;-78
2022/01/05 08:08:01;;;;;;;6.33;1.60;;;;;;;1.34;100.00;98897.84;5003734;28;20029;-78
2022/01/05 08:10:27;;;;;;;5.75;1.98;;;;;;;1.36;100.00;98902.00;5011011;28;20124;-78
2022/01/05 08:12:52;;;;;;;11.53;3.43;;;;;;;1.27;100.00;98897.63;5010686;28;20030;-77
2022/01/05 08:15:17;;;;;;;10.18;1.92;;;;;;;1.27;100.00;98895.00;5009891;28;20037;-76
2022/01/05 08:17:43;;;;;;;10.50;2.38;;;;;;;1.30;100.00;98894.69;5011736;28;20497;-79
2022/01/05 08:20:11;;;;;;;7.25;2.60;;;;;;;1.28;100.00;98899.25;5012176;28;20069;-79
2022/01/05 08:22:41;;;;;;;5.95;1.95;;;;;;;1.24;100.00;98893.50;5011054;28;20030;-80
2022/01/05 08:25:09;;;;;;;8.10;2.75;;;;;;;1.20;100.00;98888.66;5011674;28;20476;-79
2022/01/05 08:27:34;;;;;;;9.80;2.90;;;;;;;1.17;100.00;98892.44;5010835;28;20030;-79
2022/01/05 08:30:04;;;;;;;10.52;2.88;;;;;;;1.17;100.00;98902.94;5011054;28;20526;-79
2022/01/05 08:32:30;;;;;;;10.43;2.53;;;;;;;1.24;100.00;98922.41;5010771;28;20046;-79
2022/01/05 08:34:55;;;;;;;17.20;3.88;;;;;;;1.15;100.00;98902.25;5009829;28;20026;-79
2022/01/05 08:37:21;;;;;;;8.50;2.43;;;;;;;1.14;100.00;98911.09;5010608;28;20036;-78
2022/01/05 08:39:49;;;;;;;12.87;2.23;;;;;;;1.20;100.00;98922.84;5010248;28;20475;-79
2022/01/05 08:42:15;;;;;;;8.52;2.20;;;;;;;1.23;100.00;98923.34;5009548;28;20045;-78
2022/01/05 08:44:40;;;;;;;9.35;2.20;;;;;;;1.23;100.00;98931.25;5000057;28;20026;-79
2022/01/05 08:47:07;;;;;;;7.17;3.33;;;;;;;1.20;100.00;98912.34;5010360;28;20062;-79
2022/01/05 08:49:33;;;;;;;9.52;2.13;;;;;;;1.16;100.00;98930.19;5001796;28;20307;-78
2022/01/05 08:51:59;;;;;;;7.25;2.60;;;;;;;1.29;100.00;98929.00;5009936;28;20036;-78
2022/01/05 08:54:25;;;;;;;6.40;2.20;;;;;;;1.22;100.00;98924.34;5009917;28;20022;-79
2022/01/05 08:56:51;;;;;;;9.07;2.28;;;;;;;1.34;100.00;98932.84;5009517;28;20591;-76
2022/01/05 08:59:17;;;;;;;11.63;3.35;;;;;;;1.39;100.00;98933.22;5017447;28;20125;-77
2022/01/05 09:01:43;;;;;;;16.17;3.50;;;;;;;1.43;100.00;98931.16;5009425;28;20140;-76
2022/01/05 09:04:09;;;;;;;7.07;2.08;;;;;;;1.43;100.00;98928.53;5008720;28;20319;-77
2022/01/05 09:06:35;;;;;;;10.15;2.60;;;;;;;1.36;100.00;98924.81;5010464;28;20061;-77
2022/01/05 09:09:00;;;;;;;6.53;3.20;;;;;;;1.36;100.00;98925.66;5009207;28;20087;-76
2022/01/05 09:11:27;;;;;;;9.00;2.42;;;;;;;1.37;100.00;98927.28;5009405;28;20285;-77
2022/01/05 09:13:52;;;;;;;9.88;2.15;;;;;;;1.46;100.00;98938.72;5009205;28;20022;-76
2022/01/05 09:16:18;;;;;;;9.48;2.70;;;;;;;1.50;100.00;98942.72;5009033;28;20042;-77
2022/01/05 09:18:44;;;;;;;9.25;2.50;;;;;;;1.45;100.00;98934.44;5009725;28;20125;-78
2022/01/05 09:21:09;;;;;;;14.02;4.05;;;;;;;1.46;100.00;98928.22;5009369;28;20057;-79
2022/01/05 09:23:35;;;;;;;8.30;2.42;;;;;;;1.50;100.00;98926.94;5008911;28;20475;-78
2022/01/05 09:26:00;;;;;;;8.73;2.95;;;;;;;1.47;100.00;98924.59;5008994;28;20058;-78
2022/01/05 09:28:26;;;;;;;9.17;1.43;;;;;;;1.41;100.00;98917.31;5008958;28;20444;-79
2022/01/05 09:30:52;;;;;;;10.20;3.00;;;;;;;1.44;100.00;98917.84;5008805;28;20777;-76
2022/01/05 09:33:17;;;;;;;7.45;2.15;;;;;;;1.49;100.00;98935.78;5008996;28;20384;-80
2022/01/05 09:35:44;;;;;;;13.60;2.45;;;;;;;1.52;100.00;98927.59;5007976;28;20138;-80
2022/01/05 09:38:22;;;;;;;13.85;2.90;;;;;;;1.43;100.00;98924.09;5009642;28;20394;-78
2022/01/05 09:43:52;;;;;;;10.82;2.90;;;;;;;1.50;100.00;98926.94;5024930;28;20602;-78
2022/01/05 09:46:43;;;;;;;14.73;3.42;;;;;;;1.57;100.00;98927.16;5008712;28;20468;-80
2022/01/05 09:49:24;;;;;;;9.48;2.13;;;;;;;1.58;100.00;98923.56;5009148;28;20430;-80
2022/01/05 09:51:54;;;;;;;12.70;2.80;;;;;;;1.67;100.00;98928.75;5009784;28;20483;-79
2022/01/05 09:54:22;;;;;;;8.02;2.65;;;;;;;1.75;100.00;98929.81;5006343;28;20037;-79
2022/01/05 09:56:50;;;;;;;15.32;4.40;;;;;;;1.83;100.00;98924.63;5015320;28;20021;-79
2022/01/05 09:59:16;;;;;;;17.88;3.40;;;;;;;1.86;100.00;98917.25;5012530;28;20049;-79
2022/01/05 10:01:41;;;;;;;13.80;4.65;;;;;;;1.96;100.00;98919.78;5009195;28;20025;-79
2022/01/05 10:04:07;;;;;;;9.90;2.72;;;;;;;1.94;100.00;98913.03;5006318;28;20111;-80
2022/01/05 10:06:36;;;;;;;11.50;3.55;;;;;;;2.00;100.00;98915.88;5008736;28;20107;-80
2022/01/05 10:09:02;;;;;;;13.73;2.78;;;;;;;2.09;100.00;98912.34;4988885;28;20044;-79
2022/01/05 10:11:29;;;;;;;14.50;4.47;;;;;;;2.15;100.00;98910.88;5008518;28;20083;-80
2022/01/05 10:13:54;;;;;;;14.73;4.28;;;;;;;2.31;100.00;98910.19;4992870;28;20053;-79
2022/01/05 10:16:20;;;;;;;8.73;3.20;;;;;;;2.35;100.00;98908.06;5007345;28;20492;-80
2022/01/05 10:18:46;;;;;;;10.60;3.70;;;;;;;2.62;100.00;98909.69;5007468;28;20041;-79
2022/01/05 10:21:14;;;;;;;13.27;2.83;;;;;;;2.80;100.00;98907.81;5004901;28;20033;-80
2022/01/05 10:23:44;;;;;;;11.07;2.60;;;;;;;2.91;100.00;98896.19;5004968;28;20037;-77
2022/01/05 10:26:20;;;;;;;9.38;3.83;;;;;;;2.90;100.00;98887.47;5005134;28;20484;-77
2022/01/05 10:28:46;;;;;;;13.23;2.92;;;;;;;2.82;100.00;98876.88;5005102;28;20459;-77
2022/01/05 10:31:16;;;;;;;8.93;2.53;;;;;;;2.73;100.00;98872.53;5005155;28;20064;-76
2022/01/05 10:33:42;;;;;;;12.52;2.33;;;;;;;2.69;100.00;98865.94;5004332;28;20052;-79
2022/01/05 10:36:07;;;;;;;18.83;4.03;;;;;;;2.71;100.00;98861.34;5005401;28;20021;-78
2022/01/05 10:38:33;;;;;;;17.10;3.30;;;;;;;2.65;100.00;98854.06;5005360;28;20518;-78
2022/01/05 10:40:58;;;;;;;12.17;3.27;;;;;;;2.60;100.00;98856.34;5006021;28;20459;-77
2022/01/05 10:43:23;;;;;;;7.18;2.72;;;;;;;2.58;100.00;98850.44;5004768;28;20041;-78
2022/01/05 10:45:53;;;;;;;18.50;5.70;;;;;;;2.54;100.00;98861.25;5006638;28;20053;-78
2022/01/05 10:48:22;;;;;;;14.98;3.33;;;;;;;2.54;100.00;98863.88;5005629;28;20041;-79
2022/01/05 10:51:02;;;;;;;15.38;4.30;;;;;;;2.32;100.00;98846.00;5001349;28;20131;-78
2022/01/05 10:53:27;;;;;;;9.60;2.70;;;;;;;2.27;100.00;98856.16;5007339;28;20045;-81
2022/01/05 10:55:53;;;;;;;15.13;3.40;;;;;;;2.27;100.00;98857.00;5007568;28;20026;-81
2022/01/05 10:58:19;;;;;;;12.75;2.90;;;;;;;2.27;100.00;98857.00;5008879;28;20280;-81
2022/01/05 11:00:50;;;;;;;14.80;3.42;;;;;;;2.32;100.00;98870.53;5007876;28;20095;-81
2022/01/05 11:03:22;;;;;;;21.48;4.22;;;;;;;2.27;100.00;98864.91;4988347;28;20491;-81
2022/01/05 11:06:10;;;;;;;16.20;3.25;;;;;;;2.27;100.00;98872.81;4998989;28;20398;-81
2022/01/05 11:08:52;;;;;;;10.13;2.50;;;;;;;2.36;100.00;98871.03;5013388;28;20048;-80
2022/01/05 11:11:39;;;;;;;14.15;3.30;;;;;;;2.42;100.00;98875.69;4997650;28;20029;-80
2022/01/05 11:14:28;;;;;;;15.32;2.58;;;;;;;2.42;100.00;98874.88;4995636;28;20261;-78
2022/01/05 11:16:54;;;;;;;7.57;2.03;;;;;;;2.32;100.00;98885.50;5005428;28;20116;-80
2022/01/05 11:19:29;;;;;;;8.20;2.15;;;;;;;2.33;100.00;98876.63;5011539;28;20120;-80
2022/01/05 11:21:57;;;;;;;11.50;2.65;;;;;;;2.31;100.00;98873.31;5011491;28;20058;-80
2022/01/05 11:24:24;;;;;;;8.57;2.90;;;;;;;2.35;100.00;98879.94;5011172;28;20033;-80
2022/01/05 11:26:51;;;;;;;14.98;2.92;;;;;;;2.36;100.00;98888.66;5011070;28;20561;-77
2022/01/05 11:29:16;;;;;;;8.70;3.17;;;;;;;2.33;100.00;98871.34;5010270;28;20486;-77
2022/01/05 11:31:44;;;;;;;14.85;3.10;;;;;;;2.35;100.00;98901.00;5009760;28;20030;-78